createdAt,value
2024-03-06T00:02:28.113Z,25.38
2024-03-06T00:04:56.442Z,25.17
2024-03-06T00:07:24.581Z,25.42
2024-03-06T00:09:52.846Z,25.26
2024-03-06T00:12:21.023Z,25.36
2024-03-06T00:14:49.254Z,25.50
2024-03-06T00:17:17.838Z,25.41
2024-03-06T00:19:46.219Z,25.29
2024-03-06T00:22:14.759Z,25.23
2024-03-06T00:24:42.865Z,25.39
2024-03-06T00:27:11.646Z,25.31
2024-03-06T00:29:39.895Z,25.46
2024-03-06T00:32:08.761Z,25.26
2024-03-06T00:34:37.064Z,25.26
2024-03-06T00:37:05.659Z,25.08
2024-03-06T00:39:33.884Z,25.19
2024-03-06T00:42:02.168Z,25.31
2024-03-06T00:44:30.316Z,25.46
2024-03-06T00:46:58.533Z,25.08
2024-03-06T00:49:27.197Z,25.22
2024-03-06T00:51:55.566Z,25.43
2024-03-06T00:54:23.795Z,25.16
2024-03-06T00:56:52.095Z,25.17
2024-03-06T00:59:20.356Z,25.28
2024-03-06T01:01:48.581Z,25.16
2024-03-06T01:04:17.418Z,25.32
2024-03-06T01:06:47.268Z,25.06
2024-03-06T01:09:15.507Z,25.13
2024-03-06T01:11:43.624Z,25.07
2024-03-06T01:14:11.814Z,25.06
2024-03-06T01:16:40.101Z,25.26
2024-03-06T01:19:08.268Z,24.92
2024-03-06T01:21:36.601Z,25.14
2024-03-06T01:24:04.891Z,25.16
2024-03-06T01:26:33.115Z,25.02
2024-03-06T01:29:01.514Z,25.05
2024-03-06T01:31:29.787Z,25.10
2024-03-06T01:33:58.015Z,24.98
2024-03-06T01:36:26.132Z,25.12
2024-03-06T01:38:54.331Z,24.84
2024-03-06T01:41:23.110Z,25.08
2024-03-06T01:43:51.473Z,24.84
2024-03-06T01:46:19.712Z,24.89
2024-03-06T01:48:47.966Z,25.10
2024-03-06T01:51:16.229Z,25.00
2024-03-06T01:53:44.376Z,24.88
2024-03-06T01:56:16.032Z,24.97
2024-03-06T01:58:44.427Z,25.10
2024-03-06T02:01:12.747Z,25.12
2024-03-06T02:03:40.919Z,25.08
2024-03-06T02:06:09.144Z,24.89
2024-03-06T02:08:37.846Z,25.08
2024-03-06T02:11:08.369Z,24.97
2024-03-06T02:13:36.776Z,24.94
2024-03-06T02:16:05.290Z,25.09
2024-03-06T02:18:33.547Z,24.97
2024-03-06T02:21:02.181Z,25.17
2024-03-06T02:23:30.446Z,24.98
2024-03-06T02:25:58.889Z,24.90
2024-03-06T02:28:27.121Z,24.83
2024-03-06T02:30:55.417Z,24.78
2024-03-06T02:33:23.649Z,24.87
2024-03-06T02:35:51.934Z,25.06
2024-03-06T02:38:20.166Z,24.72
2024-03-06T02:40:49.325Z,24.91
2024-03-06T02:43:17.994Z,24.98
2024-03-06T02:45:46.250Z,24.86
2024-03-06T02:48:14.545Z,24.98
2024-03-06T02:50:42.762Z,24.93
2024-03-06T02:53:11.112Z,24.86
2024-03-06T02:55:39.521Z,24.81
2024-03-06T02:58:07.985Z,24.93
2024-03-06T03:00:36.172Z,24.98
2024-03-06T03:03:04.509Z,24.84
2024-03-06T03:05:34.544Z,24.81
2024-03-06T03:08:04.950Z,24.87
2024-03-06T03:10:33.096Z,24.83
2024-03-06T03:13:01.437Z,24.97
2024-03-06T03:15:29.677Z,24.64
2024-03-06T03:17:57.997Z,24.72
2024-03-06T03:20:26.810Z,24.85
2024-03-06T03:22:55.138Z,24.84
2024-03-06T03:25:23.240Z,24.71
2024-03-06T03:27:51.442Z,24.96
2024-03-06T03:30:22.800Z,24.89
2024-03-06T03:32:51.124Z,24.77
2024-03-06T03:35:22.160Z,24.74
2024-03-06T03:37:53.015Z,24.72
2024-03-06T03:40:21.280Z,24.74
2024-03-06T03:42:50.402Z,24.79
2024-03-06T03:45:19.244Z,24.77
2024-03-06T03:47:47.702Z,24.61
2024-03-06T03:50:16.216Z,24.72
2024-03-06T03:52:45.221Z,24.58
2024-03-06T03:55:13.587Z,24.72
2024-03-06T03:57:41.806Z,24.87
2024-03-06T04:00:12.599Z,24.71
2024-03-06T04:02:41.241Z,24.57
2024-03-06T04:05:10.509Z,24.60
2024-03-06T04:07:38.878Z,24.79
2024-03-06T04:10:07.764Z,24.80
2024-03-06T04:12:36.061Z,24.78
2024-03-06T04:15:05.211Z,24.91
2024-03-06T04:17:33.444Z,24.88
2024-03-06T04:20:01.800Z,24.89
2024-03-06T04:22:30.389Z,24.80
2024-03-06T04:25:00.018Z,24.85
2024-03-06T04:27:28.318Z,24.68
2024-03-06T04:29:56.509Z,24.74
2024-03-06T04:32:24.854Z,24.72
2024-03-06T04:34:54.506Z,24.80
2024-03-06T04:37:22.896Z,24.82
2024-03-06T04:39:51.114Z,24.77
2024-03-06T04:42:19.563Z,24.67
2024-03-06T04:44:47.774Z,24.61
2024-03-06T04:47:15.979Z,24.80
2024-03-06T04:49:44.275Z,24.69
2024-03-06T04:52:12.632Z,24.85
2024-03-06T04:54:40.917Z,24.77
2024-03-06T04:57:09.289Z,24.61
2024-03-06T04:59:37.507Z,24.80
2024-03-06T05:02:05.788Z,24.82
2024-03-06T05:59:56.055Z,24.63
2024-03-06T06:02:24.624Z,24.84
2024-03-06T06:05:03.933Z,25.18
2024-03-06T06:07:40.399Z,25.11
2024-03-06T06:10:11.241Z,25.57
2024-03-06T06:12:39.447Z,25.74
2024-03-06T06:15:08.719Z,26.01
2024-03-06T06:17:38.685Z,25.85
2024-03-06T06:20:15.059Z,26.87
2024-03-06T06:22:43.476Z,27.30
2024-03-06T06:25:12.006Z,27.48
2024-03-06T06:27:40.371Z,27.75
2024-03-06T06:30:13.372Z,28.34
2024-03-06T06:32:43.493Z,28.51
2024-03-06T06:35:14.385Z,28.97
2024-03-06T06:37:43.079Z,29.29
2024-03-06T06:40:13.037Z,29.33
2024-03-06T06:42:51.171Z,29.47
2024-03-06T06:45:20.184Z,29.32
2024-03-06T06:47:49.087Z,29.79
2024-03-06T06:50:18.134Z,29.74
2024-03-06T06:52:46.429Z,30.29
2024-03-06T06:55:15.614Z,30.64
2024-03-06T06:57:44.011Z,30.93
2024-03-06T07:00:13.474Z,30.63
2024-03-06T07:02:44.786Z,30.28
2024-03-06T07:05:13.204Z,31.02
2024-03-06T07:07:41.878Z,30.67
2024-03-06T07:10:10.637Z,30.80
2024-03-06T07:12:39.055Z,31.38
2024-03-06T07:15:08.132Z,31.80
2024-03-06T07:17:36.826Z,32.08
2024-03-06T07:20:07.589Z,31.86
2024-03-06T07:22:35.996Z,31.38
2024-03-06T07:25:05.030Z,31.25
2024-03-06T07:27:33.327Z,30.92
2024-03-06T07:30:01.538Z,30.26
2024-03-06T07:32:30.101Z,30.34
2024-03-06T07:34:59.867Z,29.90
2024-03-06T07:37:28.148Z,29.71
2024-03-06T07:39:56.744Z,29.36
2024-03-06T07:42:25.093Z,28.89
2024-03-06T07:44:53.314Z,28.71
2024-03-06T07:47:21.720Z,28.75
2024-03-06T07:49:51.766Z,28.40
2024-03-06T07:52:20.000Z,28.30
2024-03-06T07:54:47.234Z,28.33
2024-03-06T07:57:14.499Z,27.77
2024-03-06T07:59:41.828Z,27.72
2024-03-06T08:02:09.292Z,27.23
2024-03-06T08:04:37.161Z,26.91
2024-03-06T08:07:04.529Z,26.92
2024-03-06T08:09:31.724Z,26.95
2024-03-06T08:11:59.164Z,27.83
2024-03-06T08:14:26.761Z,28.24
2024-03-06T08:16:54.105Z,28.29
2024-03-06T08:19:21.315Z,28.35
2024-03-06T08:21:48.908Z,28.44
2024-03-06T08:24:18.460Z,28.33
2024-03-06T08:26:47.017Z,28.02
2024-03-06T08:29:14.319Z,28.26
2024-03-06T08:31:41.653Z,28.24
2024-03-06T08:34:08.968Z,27.87
2024-03-06T08:36:36.279Z,28.00
2024-03-06T08:39:03.663Z,27.91
2024-03-06T08:41:30.826Z,27.96
2024-03-06T08:43:58.110Z,27.95
2024-03-06T08:46:26.069Z,27.97
2024-03-06T08:48:53.331Z,28.07
2024-03-06T08:51:20.742Z,28.23
2024-03-06T08:53:49.499Z,27.99
2024-03-06T08:56:16.825Z,27.75
2024-03-06T08:58:44.266Z,27.50
2024-03-06T09:01:11.512Z,27.53
2024-03-06T09:03:38.838Z,27.64
2024-03-06T09:06:06.446Z,27.76
2024-03-06T09:08:33.830Z,27.67
2024-03-06T09:11:01.324Z,28.51
2024-03-06T09:13:28.547Z,28.63
2024-03-06T09:15:55.747Z,28.73
2024-03-06T09:18:22.980Z,28.92
2024-03-06T09:20:50.255Z,29.03
2024-03-06T09:23:17.636Z,28.91
2024-03-06T09:25:44.989Z,29.06
2024-03-06T09:28:13.117Z,29.08
2024-03-06T09:30:40.277Z,29.03
2024-03-06T09:33:08.240Z,29.05
2024-03-06T09:35:38.121Z,29.28
2024-03-06T09:38:05.578Z,29.29
2024-03-06T09:40:32.887Z,29.35
2024-03-06T09:43:00.544Z,29.52
2024-03-06T09:45:27.876Z,29.56
2024-03-06T09:47:55.477Z,29.57
2024-03-06T09:50:25.837Z,29.65
2024-03-06T09:52:54.883Z,29.30
2024-03-06T09:55:22.502Z,29.88
2024-03-06T09:57:51.251Z,29.94
2024-03-06T10:00:21.121Z,29.66
2024-03-06T10:03:01.546Z,29.35
2024-03-06T10:05:29.682Z,29.13
2024-03-06T10:07:57.020Z,29.32
2024-03-06T10:10:24.475Z,29.40
2024-03-06T10:12:52.067Z,30.16
2024-03-06T10:15:19.363Z,30.47
2024-03-06T10:17:50.648Z,30.61
2024-03-06T10:20:22.567Z,30.59
2024-03-06T10:22:59.253Z,30.53
2024-03-06T10:25:27.993Z,30.47
2024-03-06T10:28:11.535Z,30.36
2024-03-06T10:30:43.498Z,30.42
2024-03-06T10:33:11.683Z,30.31
2024-03-06T10:35:39.079Z,30.06
2024-03-06T10:38:07.653Z,30.29
2024-03-06T10:40:36.652Z,30.36
2024-03-06T10:43:07.133Z,30.13
2024-03-06T10:45:36.970Z,30.35
2024-03-06T10:48:05.327Z,30.38
2024-03-06T10:50:33.136Z,30.28
2024-03-06T10:53:00.602Z,30.34
2024-03-06T10:55:27.871Z,30.01
2024-03-06T10:57:55.163Z,29.57
2024-03-06T11:00:23.038Z,29.64
2024-03-06T11:02:50.874Z,29.40
2024-03-06T11:05:18.292Z,29.32
2024-03-06T11:07:45.557Z,29.29
2024-03-06T11:10:17.711Z,29.08
2024-03-06T11:12:50.558Z,28.96
2024-03-06T11:15:20.187Z,28.68
2024-03-06T11:17:47.676Z,28.69
2024-03-06T11:20:19.744Z,28.79
2024-03-06T11:23:00.364Z,28.91
2024-03-06T11:25:47.407Z,29.31
2024-03-06T11:28:21.705Z,29.24
2024-03-06T11:30:49.703Z,29.34
2024-03-06T11:33:20.146Z,29.05
2024-03-06T11:36:19.106Z,28.96
2024-03-06T11:38:54.201Z,28.94
2024-03-06T11:41:25.831Z,28.70
2024-03-06T11:43:54.523Z,28.79
2024-03-06T11:46:22.796Z,28.66
2024-03-06T11:48:56.325Z,28.84
2024-03-06T11:51:24.672Z,28.50
2024-03-06T11:53:52.584Z,28.57
2024-03-06T11:56:21.126Z,29.23
2024-03-06T11:58:50.235Z,29.70
2024-03-06T12:01:19.713Z,30.09
2024-03-06T12:03:47.245Z,30.53
2024-03-06T12:06:15.888Z,31.17
2024-03-06T12:08:43.266Z,31.42
2024-03-06T12:11:10.978Z,32.08
2024-03-06T12:13:38.290Z,32.41
2024-03-06T12:16:07.574Z,32.73
2024-03-06T12:18:35.454Z,32.74
2024-03-06T12:21:04.106Z,32.95
2024-03-06T12:23:31.469Z,33.18
2024-03-06T12:26:06.503Z,33.29
2024-03-06T12:28:34.249Z,33.38
2024-03-06T12:31:03.991Z,33.45
2024-03-06T12:33:31.695Z,33.61
2024-03-06T12:36:06.045Z,33.51
2024-03-06T12:38:33.714Z,33.58
2024-03-06T12:41:01.365Z,33.36
2024-03-06T12:43:30.052Z,33.66
2024-03-06T12:46:00.540Z,33.50
2024-03-06T12:48:31.373Z,33.21
2024-03-06T12:51:06.499Z,33.25
2024-03-06T12:53:37.128Z,33.24
2024-03-06T12:56:05.110Z,33.08
2024-03-06T12:58:32.607Z,32.97
2024-03-06T13:01:00.044Z,32.92
2024-03-06T13:03:27.426Z,32.71
2024-03-06T13:05:55.084Z,32.59
2024-03-06T13:08:22.297Z,32.36
2024-03-06T13:10:49.600Z,32.48
2024-03-06T13:13:16.822Z,32.56
2024-03-06T13:15:45.016Z,32.35
2024-03-06T13:18:12.371Z,32.20
2024-03-06T13:20:39.622Z,32.11
2024-03-06T13:23:07.135Z,32.17
2024-03-06T13:25:34.392Z,32.11
2024-03-06T13:28:01.599Z,31.64
2024-03-06T13:30:29.098Z,31.54
2024-03-06T13:32:56.607Z,31.65
2024-03-06T13:35:23.961Z,31.42
2024-03-06T13:37:51.421Z,31.54
2024-03-06T13:40:18.697Z,31.14
2024-03-06T13:42:46.001Z,31.14
2024-03-06T13:45:13.266Z,31.08
2024-03-06T13:47:41.708Z,30.99
2024-03-06T13:50:10.052Z,30.89
2024-03-06T13:52:37.552Z,30.73
2024-03-06T13:55:08.132Z,30.78
2024-03-06T13:57:36.184Z,30.63
2024-03-06T14:00:06.266Z,30.45
2024-03-06T14:02:42.258Z,30.59
2024-03-06T14:05:09.737Z,30.19
2024-03-06T14:07:36.973Z,30.28
2024-03-06T14:10:06.559Z,30.18
2024-03-06T14:12:33.981Z,30.23
2024-03-06T14:15:01.190Z,29.96
2024-03-06T14:17:28.524Z,30.13
2024-03-06T14:19:55.901Z,30.07
2024-03-06T14:22:23.134Z,29.80
2024-03-06T14:24:50.337Z,29.92
2024-03-06T14:27:18.399Z,29.79
2024-03-06T14:29:46.127Z,29.90
2024-03-06T14:32:13.457Z,29.56
2024-03-06T14:34:40.786Z,29.60
2024-03-06T14:37:08.407Z,29.76
2024-03-06T14:39:35.566Z,29.40
2024-03-06T14:42:02.881Z,29.39
2024-03-06T14:44:31.025Z,29.49
2024-03-06T14:46:58.547Z,29.48
2024-03-06T14:49:26.415Z,29.17
2024-03-06T14:51:54.261Z,29.30
2024-03-06T14:54:21.440Z,29.20
2024-03-06T14:56:49.329Z,29.14
2024-03-06T14:59:16.630Z,29.12
2024-03-06T15:01:45.465Z,29.15
2024-03-06T15:04:13.573Z,28.95
2024-03-06T15:06:40.836Z,29.12
2024-03-06T15:09:12.885Z,28.97
2024-03-06T15:11:40.918Z,28.92
2024-03-06T15:14:09.177Z,28.86
2024-03-06T15:16:38.526Z,28.90
2024-03-06T15:19:05.764Z,28.77
2024-03-06T15:21:33.275Z,29.03
2024-03-06T15:24:02.251Z,28.79
2024-03-06T15:26:31.072Z,28.70
2024-03-06T15:28:58.462Z,28.54
2024-03-06T15:31:26.640Z,28.78
2024-03-06T15:33:53.861Z,28.40
2024-03-06T15:36:22.194Z,28.64
2024-03-06T15:38:49.465Z,28.58
2024-03-06T15:41:19.213Z,28.67
2024-03-06T15:43:46.532Z,28.34
2024-03-06T15:46:13.739Z,28.51
2024-03-06T15:48:41.047Z,28.50
2024-03-06T15:51:09.735Z,28.48
2024-03-06T15:53:37.112Z,28.27
2024-03-06T15:56:04.729Z,28.30
2024-03-06T15:58:31.962Z,28.26
2024-03-06T16:01:01.424Z,28.30
2024-03-06T16:03:31.081Z,28.30
2024-03-06T16:06:07.183Z,28.24
2024-03-06T16:08:42.531Z,28.29
2024-03-06T16:11:09.881Z,28.42
2024-03-06T16:13:37.227Z,28.23
2024-03-06T16:16:04.994Z,28.05
2024-03-06T16:18:32.233Z,28.41
2024-03-06T16:21:00.442Z,28.14
2024-03-06T16:23:27.778Z,28.10
2024-03-06T16:25:55.005Z,28.09
2024-03-06T16:28:23.747Z,28.09
2024-03-06T16:30:51.046Z,27.94
2024-03-06T16:33:18.278Z,27.99
2024-03-06T16:35:45.630Z,27.94
2024-03-06T16:38:13.226Z,27.95
2024-03-06T16:40:40.530Z,27.77
2024-03-06T16:43:07.731Z,27.95
2024-03-06T16:45:34.940Z,27.85
2024-03-06T16:48:02.463Z,27.83
2024-03-06T16:50:29.841Z,27.74
2024-03-06T16:52:57.675Z,27.79
2024-03-06T16:55:25.213Z,27.80
2024-03-06T16:57:52.475Z,27.88
2024-03-06T17:00:19.855Z,27.71
2024-03-06T17:02:47.157Z,27.81
2024-03-06T17:05:15.443Z,27.72
2024-03-06T17:07:46.403Z,27.93
2024-03-06T17:10:15.931Z,27.87
2024-03-06T17:12:44.171Z,27.84
2024-03-06T17:15:13.945Z,27.62
2024-03-06T17:17:42.266Z,27.62
2024-03-06T17:20:11.296Z,27.84
2024-03-06T17:22:39.565Z,27.83
2024-03-06T17:25:09.027Z,27.71
2024-03-06T17:27:37.521Z,27.87
2024-03-06T17:30:06.515Z,27.63
2024-03-06T17:32:34.765Z,27.82
2024-03-06T17:35:05.006Z,27.78
2024-03-06T17:37:33.229Z,27.54
2024-03-06T17:40:01.335Z,27.49
2024-03-06T17:42:29.727Z,27.73
2024-03-06T17:44:57.999Z,27.43
2024-03-06T17:47:26.266Z,27.87
2024-03-06T17:49:54.522Z,27.50
2024-03-06T17:52:23.044Z,27.43
2024-03-06T17:54:51.338Z,27.47
2024-03-06T17:57:19.591Z,27.39
2024-03-06T17:59:47.947Z,27.46
2024-03-06T18:02:16.249Z,27.55
2024-03-06T18:04:45.583Z,27.60
2024-03-06T18:07:13.866Z,27.35
2024-03-06T18:09:42.456Z,27.37
2024-03-06T18:12:10.725Z,27.46
2024-03-06T18:14:39.022Z,27.43
2024-03-06T18:17:07.390Z,27.53
2024-03-06T18:19:35.781Z,27.47
2024-03-06T18:22:04.062Z,27.25
2024-03-06T18:24:32.215Z,27.39
2024-03-06T18:27:00.513Z,27.46
2024-03-06T18:29:29.699Z,27.22
2024-03-06T18:31:57.964Z,27.34
2024-03-06T18:34:26.520Z,27.32
2024-03-06T18:36:54.785Z,27.33
2024-03-06T18:39:23.030Z,27.41
2024-03-06T18:41:52.377Z,27.26
2024-03-06T18:44:20.730Z,27.23
2024-03-06T18:46:48.872Z,27.22
2024-03-06T18:49:20.503Z,27.31
2024-03-06T18:51:49.790Z,27.43
2024-03-06T18:54:18.260Z,27.23
2024-03-06T18:56:49.062Z,27.19
2024-03-06T18:59:17.437Z,27.29
2024-03-06T19:01:49.433Z,27.33
2024-03-06T19:04:21.936Z,27.08
2024-03-06T19:06:50.393Z,27.31
2024-03-06T19:09:20.238Z,27.37
2024-03-06T19:11:51.549Z,27.21
2024-03-06T19:14:21.538Z,27.23
2024-03-06T19:16:49.805Z,27.25
2024-03-06T19:19:19.036Z,27.11
2024-03-06T19:21:49.376Z,27.08
2024-03-06T19:24:17.897Z,27.20
2024-03-06T19:26:46.068Z,27.24
2024-03-06T19:29:14.279Z,27.03
2024-03-06T19:31:42.557Z,27.21
2024-03-06T19:34:13.785Z,26.92
2024-03-06T19:36:45.045Z,27.21
2024-03-06T19:39:13.361Z,27.18
2024-03-06T19:41:41.600Z,26.98
2024-03-06T19:44:09.854Z,27.25
2024-03-06T19:46:38.125Z,27.15
2024-03-06T19:49:06.965Z,27.11
2024-03-06T19:51:35.204Z,27.11
2024-03-06T19:54:04.892Z,26.98
2024-03-06T19:56:33.176Z,27.07
2024-03-06T19:59:01.612Z,26.93
2024-03-06T20:01:29.886Z,26.89
2024-03-06T20:03:58.608Z,26.99
2024-03-06T20:06:28.597Z,27.11
2024-03-06T20:08:56.882Z,27.05
2024-03-06T20:11:28.252Z,27.07
2024-03-06T20:13:56.477Z,27.00
2024-03-06T20:16:24.722Z,26.79
2024-03-06T20:18:53.040Z,26.91
2024-03-06T20:21:22.396Z,26.95
2024-03-06T20:23:51.175Z,26.76
2024-03-06T20:26:19.837Z,26.91
2024-03-06T20:28:51.260Z,27.10
2024-03-06T20:31:19.421Z,26.78
2024-03-06T20:33:47.638Z,26.98
2024-03-06T20:36:15.896Z,26.92
2024-03-06T20:38:44.510Z,26.85
2024-03-06T20:41:13.963Z,26.77
2024-03-06T20:43:42.281Z,27.07
2024-03-06T20:46:10.525Z,26.84
2024-03-06T20:48:38.768Z,26.94
2024-03-06T20:51:10.531Z,27.02
2024-03-06T20:53:39.285Z,26.80
2024-03-06T20:56:09.050Z,26.90
2024-03-06T20:58:37.527Z,26.86
2024-03-06T21:01:06.428Z,26.85
2024-03-06T21:03:36.234Z,26.96
2024-03-06T21:06:05.242Z,26.80
2024-03-06T21:08:33.819Z,26.99
2024-03-06T21:11:02.270Z,26.78
2024-03-06T21:13:30.930Z,27.01
2024-03-06T21:15:59.091Z,26.84
2024-03-06T21:18:27.405Z,26.90
2024-03-06T21:20:55.702Z,26.99
2024-03-06T21:23:24.988Z,26.87
2024-03-06T21:25:53.490Z,26.80
2024-03-06T21:28:25.698Z,26.76
2024-03-06T21:30:54.325Z,26.93
2024-03-06T21:33:22.546Z,26.90
2024-03-06T21:35:50.962Z,26.92
2024-03-06T21:38:19.448Z,26.86
2024-03-06T21:40:47.689Z,26.99
2024-03-06T21:43:16.661Z,26.87
2024-03-06T21:45:45.035Z,26.77
2024-03-06T21:48:13.440Z,26.82
2024-03-06T21:50:41.833Z,26.89
2024-03-06T21:53:11.433Z,26.89
2024-03-06T21:55:39.727Z,26.82
2024-03-06T21:58:07.936Z,26.87
2024-03-06T22:00:36.110Z,26.95
2024-03-06T22:03:06.240Z,26.88
2024-03-06T22:05:34.646Z,26.96
2024-03-06T22:08:03.029Z,27.02
2024-03-06T22:10:31.231Z,26.92
2024-03-06T22:12:59.576Z,27.17
2024-03-06T22:15:27.777Z,26.91
2024-03-06T22:17:56.017Z,26.88
2024-03-06T22:20:24.185Z,26.84
2024-03-06T22:22:52.582Z,26.77
2024-03-06T22:25:20.871Z,26.60
2024-03-06T22:27:49.508Z,26.60
2024-03-06T22:30:17.895Z,26.77
2024-03-06T22:32:47.015Z,26.50
2024-03-06T22:35:15.544Z,26.98
2024-03-06T22:37:43.796Z,26.98
2024-03-06T22:40:12.785Z,26.75
2024-03-06T22:42:41.411Z,26.82
2024-03-06T22:45:10.012Z,26.66
2024-03-06T22:47:38.303Z,26.61
2024-03-06T22:50:06.918Z,26.91
2024-03-06T22:52:35.082Z,26.92
2024-03-06T22:55:06.598Z,26.58
2024-03-06T22:57:36.040Z,26.78
2024-03-06T23:00:08.754Z,26.88
2024-03-06T23:02:36.991Z,26.70
2024-03-06T23:05:08.797Z,26.58
2024-03-06T23:07:38.099Z,26.68
2024-03-06T23:10:06.625Z,26.82
2024-03-06T23:12:34.873Z,26.56
2024-03-06T23:15:04.904Z,26.39
2024-03-06T23:17:33.280Z,26.53
2024-03-06T23:20:01.602Z,26.67
2024-03-06T23:22:29.865Z,26.68
2024-03-06T23:24:58.531Z,26.46
2024-03-06T23:27:27.000Z,26.48
2024-03-06T23:29:55.274Z,26.70
2024-03-06T23:32:24.557Z,26.49
2024-03-06T23:34:52.925Z,26.64
2024-03-06T23:37:21.111Z,26.66
2024-03-06T23:39:49.219Z,26.48
2024-03-06T23:42:18.062Z,26.63
2024-03-06T23:44:46.395Z,26.60
2024-03-06T23:47:16.537Z,26.59
2024-03-06T23:49:44.784Z,26.62
2024-03-06T23:52:16.874Z,26.54
2024-03-06T23:54:45.576Z,26.47
2024-03-06T23:57:13.875Z,26.45
2024-03-06T23:59:44.603Z,26.62
